Time;durP1;ratioP1;P1;durP2;ratioP2;P2;SDS_P1;SDS_P2;PMS_P1;PMS_P2;Temp;Humidity;BMP_temperature;BMP_pressure;BME280_temperature;BME280_humidity;BME280_pressure;Samples;Min_cycle;Max_cycle;Signal;HPM_P1;HPM_P2
2023/05/18 00:02:14;;;;;;;4.37;1.97;;;9.00;99.90;;;;;;5038809;28;20269;-57
2023/05/18 00:04:43;;;;;;;6.33;1.80;;;9.00;99.90;;;;;;5040266;28;21713;-55
2023/05/18 00:07:16;;;;;;;4.77;1.80;;;9.00;99.90;;;;;;5041346;28;20584;-56
2023/05/18 00:09:44;;;;;;;7.17;2.03;;;9.00;99.90;;;;;;5029116;28;20725;-54
2023/05/18 00:12:12;;;;;;;6.80;2.00;;;9.00;99.90;;;;;;5037211;28;20681;-57
2023/05/18 00:14:40;;;;;;;8.37;2.40;;;8.90;99.90;;;;;;5041009;28;20584;-56
2023/05/18 00:17:08;;;;;;;6.87;2.00;;;9.00;99.90;;;;;;5041234;28;20303;-56
2023/05/18 00:19:36;;;;;;;6.20;1.90;;;8.90;99.90;;;;;;5041093;28;20719;-57
2023/05/18 00:22:06;;;;;;;7.90;1.80;;;8.90;99.90;;;;;;5038730;28;20224;-59
2023/05/18 00:24:36;;;;;;;6.67;2.03;;;8.90;99.90;;;;;;5029211;28;20260;-57
2023/05/18 00:27:04;;;;;;;8.33;2.20;;;8.90;99.90;;;;;;5041506;28;20579;-58
2023/05/18 00:29:32;;;;;;;5.23;1.90;;;8.90;99.90;;;;;;5040872;28;20308;-57
2023/05/18 00:32:00;;;;;;;4.10;1.80;;;8.90;99.90;;;;;;5036998;28;20576;-58
2023/05/18 00:34:30;;;;;;;4.73;1.60;;;8.80;99.90;;;;;;5029126;28;20236;-57
2023/05/18 00:36:58;;;;;;;4.50;1.57;;;8.80;99.90;;;;;;5029375;28;20323;-53
2023/05/18 00:39:26;;;;;;;11.70;2.73;;;8.80;99.90;;;;;;5040927;28;20235;-56
2023/05/18 00:41:55;;;;;;;5.90;1.93;;;8.80;99.90;;;;;;5036970;28;20234;-54
2023/05/18 00:44:24;;;;;;;6.73;1.70;;;8.80;99.90;;;;;;5028622;28;20248;-58
2023/05/18 00:46:55;;;;;;;5.07;1.77;;;8.80;99.90;;;;;;5040948;28;20228;-58
2023/05/18 00:49:23;;;;;;;4.37;1.47;;;8.80;99.90;;;;;;5040650;28;20687;-55
2023/05/18 00:51:52;;;;;;;6.27;1.90;;;8.80;99.90;;;;;;5038835;28;20204;-58
2023/05/18 00:54:20;;;;;;;6.73;1.70;;;8.80;99.90;;;;;;5028601;28;20231;-59
2023/05/18 00:56:48;;;;;;;5.07;1.77;;;8.80;99.90;;;;;;5029714;28;20700;-57
2023/05/18 00:59:18;;;;;;;7.20;2.00;;;8.80;99.90;;;;;;5040144;28;20224;-58
2023/05/18 01:01:47;;;;;;;6.53;1.80;;;8.80;99.90;;;;;;5036699;28;20326;-58
2023/05/18 01:04:15;;;;;;;5.83;1.70;;;8.90;99.90;;;;;;5040874;28;20704;-58
2023/05/18 01:06:45;;;;;;;7.77;1.87;;;8.90;99.90;;;;;;5053136;28;20242;-59
2023/05/18 01:09:15;;;;;;;5.13;1.50;;;8.90;99.90;;;;;;5041868;28;20225;-58
2023/05/18 01:11:54;;;;;;;5.70;1.93;;;8.80;99.90;;;;;;5034094;28;20694;-58
2023/05/18 01:14:29;;;;;;;5.07;2.23;;;8.80;99.90;;;;;;5016844;28;20595;-58
2023/05/18 01:17:09;;;;;;;6.07;1.90;;;8.80;99.90;;;;;;5035834;28;20303;-59
2023/05/18 01:20:08;;;;;;;8.10;1.83;;;8.80;99.90;;;;;;5036677;28;20738;-58
2023/05/18 01:22:50;;;;;;;5.70;2.23;;;8.80;99.90;;;;;;5032004;28;20236;-58
2023/05/18 01:25:30;;;;;;;5.53;1.83;;;8.90;99.90;;;;;;5054428;28;20730;-59
2023/05/18 01:28:05;;;;;;;4.97;1.70;;;8.80;99.90;;;;;;5039191;28;20219;-57
2023/05/18 01:30:34;;;;;;;7.40;1.90;;;8.80;99.90;;;;;;5065397;28;20231;-58
2023/05/18 01:33:08;;;;;;;6.97;2.43;;;8.80;99.90;;;;;;5052833;28;20220;-56
2023/05/18 01:35:36;;;;;;;4.77;1.60;;;8.70;99.90;;;;;;5034975;28;20639;-57
2023/05/18 01:38:04;;;;;;;9.20;2.33;;;8.70;99.90;;;;;;5036241;28;20228;-58
2023/05/18 01:40:37;;;;;;;5.97;2.00;;;8.70;99.90;;;;;;5053703;28;20634;-58
2023/05/18 01:43:11;;;;;;;6.23;1.53;;;8.70;99.90;;;;;;5053993;28;20742;-58
2023/05/18 01:45:43;;;;;;;5.70;1.70;;;8.70;99.90;;;;;;5035969;28;20220;-58
2023/05/18 01:48:22;;;;;;;6.97;1.70;;;8.70;99.90;;;;;;5035453;28;20236;-58
2023/05/18 01:50:54;;;;;;;6.03;1.93;;;8.70;99.90;;;;;;5053151;28;20230;-58
2023/05/18 01:53:25;;;;;;;5.83;1.57;;;8.70;99.90;;;;;;5053769;28;20251;-58
2023/05/18 01:55:55;;;;;;;7.07;2.00;;;8.70;99.90;;;;;;5035888;28;20228;-58
2023/05/18 01:58:25;;;;;;;6.80;1.60;;;8.60;99.90;;;;;;5059883;28;20689;-58
2023/05/18 02:00:53;;;;;;;4.20;1.97;;;8.60;99.90;;;;;;5046537;28;20259;-58
2023/05/18 02:03:21;;;;;;;7.27;2.03;;;8.70;99.90;;;;;;5049502;28;20234;-57
2023/05/18 02:05:50;;;;;;;6.73;2.17;;;8.70;99.90;;;;;;5035327;28;20220;-58
2023/05/18 02:08:18;;;;;;;6.43;1.80;;;8.60;99.90;;;;;;5034038;28;20689;-58
2023/05/18 02:10:47;;;;;;;6.33;2.00;;;8.60;99.90;;;;;;5035434;28;20247;-58
2023/05/18 02:13:15;;;;;;;7.00;1.90;;;8.60;99.90;;;;;;5035567;28;20257;-58
2023/05/18 02:15:44;;;;;;;3.80;1.53;;;8.60;99.90;;;;;;5053251;28;20222;-59
2023/05/18 02:18:13;;;;;;;6.33;1.70;;;8.60;99.90;;;;;;5035463;28;20274;-59
2023/05/18 02:20:41;;;;;;;8.77;1.90;;;8.60;99.90;;;;;;5037446;28;20316;-57
2023/05/18 02:23:09;;;;;;;8.50;2.00;;;8.60;99.90;;;;;;5033883;28;20640;-58
2023/05/18 02:25:37;;;;;;;4.77;1.57;;;8.50;99.90;;;;;;5053103;28;20240;-58
2023/05/18 02:28:06;;;;;;;5.60;1.90;;;8.50;99.90;;;;;;5039056;28;20774;-58
2023/05/18 02:30:34;;;;;;;5.93;1.80;;;8.60;99.90;;;;;;5064154;28;20231;-58
2023/05/18 02:33:03;;;;;;;6.30;1.80;;;8.50;99.90;;;;;;5069543;28;20683;-58
2023/05/18 02:35:31;;;;;;;4.00;1.53;;;8.50;99.90;;;;;;5034324;28;20741;-58
2023/05/18 02:37:59;;;;;;;6.20;1.90;;;8.50;99.90;;;;;;5035136;28;20228;-59
2023/05/18 02:40:27;;;;;;;6.97;1.73;;;8.50;99.90;;;;;;5034945;28;20231;-58
2023/05/18 02:42:55;;;;;;;5.47;2.10;;;8.50;99.90;;;;;;5052852;28;20238;-59
2023/05/18 02:45:25;;;;;;;4.03;1.80;;;8.60;99.90;;;;;;5034924;28;20228;-56
2023/05/18 02:47:54;;;;;;;6.50;1.80;;;8.50;99.90;;;;;;5034956;28;20228;-59
2023/05/18 02:50:23;;;;;;;6.60;1.80;;;8.50;99.90;;;;;;5037250;28;20221;-58
2023/05/18 02:52:51;;;;;;;6.43;2.30;;;8.50;99.90;;;;;;5051838;28;20741;-58
2023/05/18 02:55:19;;;;;;;5.60;1.73;;;8.50;99.90;;;;;;5034854;28;20220;-58
2023/05/18 02:58:07;;;;;;;4.20;2.10;;;8.50;99.90;;;;;;5038883;28;20227;-58
2023/05/18 03:01:02;;;;;;;6.37;1.93;;;8.60;99.90;;;;;;5059250;28;20234;-58
2023/05/18 03:03:36;;;;;;;5.77;1.80;;;8.60;99.90;;;;;;5046239;28;20254;-58
2023/05/18 03:06:07;;;;;;;6.17;1.90;;;8.50;99.90;;;;;;5034085;28;20637;-58
2023/05/18 03:08:36;;;;;;;7.70;2.23;;;8.50;99.90;;;;;;5034580;28;20230;-58
2023/05/18 03:11:04;;;;;;;4.17;1.90;;;8.60;99.90;;;;;;5034766;28;20275;-58
2023/05/18 03:13:32;;;;;;;4.40;1.80;;;8.50;99.90;;;;;;5034588;28;20704;-59
2023/05/18 03:16:00;;;;;;;6.00;1.93;;;8.50;99.90;;;;;;5034594;28;20339;-58
2023/05/18 03:18:29;;;;;;;7.20;2.07;;;8.50;99.90;;;;;;5034426;28;20311;-57
2023/05/18 03:21:00;;;;;;;5.17;1.70;;;8.50;99.90;;;;;;5051755;28;20247;-58
2023/05/18 03:23:31;;;;;;;6.27;2.00;;;8.50;99.90;;;;;;5034241;28;20634;-59
2023/05/18 03:26:01;;;;;;;3.83;1.60;;;8.50;99.90;;;;;;5034613;28;20234;-58
2023/05/18 03:28:30;;;;;;;4.60;1.77;;;8.50;99.90;;;;;;5041491;28;20269;-58
2023/05/18 03:30:59;;;;;;;4.17;1.67;;;8.50;99.90;;;;;;5052046;28;20236;-58
2023/05/18 03:33:27;;;;;;;5.57;1.90;;;8.50;99.90;;;;;;5052106;28;20295;-57
2023/05/18 03:35:55;;;;;;;7.30;2.10;;;8.50;99.90;;;;;;5037822;28;20228;-58
2023/05/18 03:38:24;;;;;;;6.90;1.97;;;8.50;99.90;;;;;;5018998;28;20267;-58
2023/05/18 03:41:00;;;;;;;5.83;2.00;;;8.50;99.90;;;;;;5018650;28;20290;-59
2023/05/18 03:43:31;;;;;;;3.53;1.70;;;8.50;99.90;;;;;;5018791;28;20229;-58
2023/05/18 03:46:00;;;;;;;7.17;2.07;;;8.50;99.90;;;;;;5018588;28;20228;-58
2023/05/18 03:48:29;;;;;;;6.37;2.10;;;8.50;99.90;;;;;;5018331;28;20248;-58
2023/05/18 03:50:57;;;;;;;7.43;2.00;;;8.50;99.90;;;;;;5050151;28;20224;-59
2023/05/18 03:53:28;;;;;;;5.00;2.50;;;8.50;99.90;;;;;;5036961;28;20273;-58
2023/05/18 03:55:57;;;;;;;4.67;2.00;;;8.60;99.90;;;;;;5038017;28;20248;-57
2023/05/18 03:58:26;;;;;;;7.17;1.97;;;8.60;99.90;;;;;;5055917;28;20604;-58
2023/05/18 04:00:55;;;;;;;7.83;2.00;;;8.70;99.90;;;;;;5037227;28;20254;-58
2023/05/18 04:03:25;;;;;;;7.37;2.33;;;8.70;99.90;;;;;;5025161;28;20751;-58
2023/05/18 04:05:54;;;;;;;6.20;1.80;;;8.70;99.90;;;;;;5054062;28;20231;-58
2023/05/18 04:08:24;;;;;;;7.47;2.30;;;8.70;99.90;;;;;;5055872;28;20251;-59
2023/05/18 04:10:52;;;;;;;6.93;1.87;;;8.70;99.90;;;;;;5037877;28;20252;-59
2023/05/18 04:13:20;;;;;;;5.27;1.60;;;8.70;99.90;;;;;;5037380;28;20216;-59
2023/05/18 04:15:50;;;;;;;6.70;2.03;;;8.80;99.90;;;;;;5045860;28;20221;-58
2023/05/18 04:18:18;;;;;;;8.20;2.00;;;8.80;99.90;;;;;;5034476;28;20765;-59
2023/05/18 04:20:46;;;;;;;5.40;2.30;;;8.80;99.90;;;;;;5046600;28;20280;-58
2023/05/18 04:23:14;;;;;;;6.13;1.73;;;8.80;99.90;;;;;;5055488;28;20229;-58
2023/05/18 04:25:42;;;;;;;6.97;2.10;;;8.90;99.90;;;;;;5037453;28;20238;-59
2023/05/18 04:28:10;;;;;;;7.17;1.90;;;8.90;99.90;;;;;;5037105;28;20255;-59
2023/05/18 04:30:40;;;;;;;5.40;1.70;;;9.00;99.90;;;;;;5036916;28;20238;-58
2023/05/18 04:33:09;;;;;;;6.50;2.30;;;9.00;99.90;;;;;;5037336;28;20226;-59
2023/05/18 04:35:38;;;;;;;6.43;1.90;;;8.90;99.90;;;;;;5036536;28;20288;-58
2023/05/18 04:38:06;;;;;;;7.83;2.30;;;9.00;99.90;;;;;;5037370;28;20237;-58
2023/05/18 04:40:36;;;;;;;5.27;1.90;;;9.00;99.90;;;;;;5037191;28;20229;-58
2023/05/18 04:43:05;;;;;;;6.53;1.83;;;9.10;99.90;;;;;;5036774;28;20225;-59
2023/05/18 04:45:34;;;;;;;5.43;2.27;;;9.10;99.90;;;;;;5036063;28;20312;-59
2023/05/18 04:48:02;;;;;;;6.13;2.30;;;9.10;99.90;;;;;;5054510;28;20207;-58
2023/05/18 04:50:32;;;;;;;7.23;1.77;;;9.10;99.90;;;;;;5054733;28;20580;-58
2023/05/18 04:53:01;;;;;;;4.77;1.80;;;9.10;99.90;;;;;;5054837;28;20216;-59
2023/05/18 04:55:29;;;;;;;7.20;2.17;;;9.20;99.90;;;;;;5036846;28;20591;-59
2023/05/18 04:58:03;;;;;;;9.20;2.27;;;9.20;99.90;;;;;;5036926;28;20278;-58
2023/05/18 05:00:31;;;;;;;5.07;1.83;;;9.30;99.90;;;;;;5032504;28;20658;-59
2023/05/18 05:03:00;;;;;;;5.30;1.97;;;9.30;99.90;;;;;;5033399;28;20248;-56
2023/05/18 05:05:31;;;;;;;5.37;1.70;;;9.40;99.90;;;;;;5026797;28;20723;-59
2023/05/18 05:07:59;;;;;;;5.90;1.90;;;9.40;99.90;;;;;;5015052;28;20221;-58
2023/05/18 05:10:27;;;;;;;5.70;1.87;;;9.40;99.90;;;;;;5013572;28;20230;-58
2023/05/18 05:12:55;;;;;;;6.10;2.00;;;9.50;99.90;;;;;;5013704;28;20221;-59
2023/05/18 05:15:24;;;;;;;5.23;2.07;;;9.50;99.90;;;;;;5013574;28;20226;-56
2023/05/18 05:17:53;;;;;;;6.80;2.20;;;9.50;99.90;;;;;;5027151;28;20308;-58
2023/05/18 05:20:22;;;;;;;8.40;2.07;;;9.50;99.90;;;;;;5031999;28;20217;-58
2023/05/18 05:22:51;;;;;;;9.03;2.30;;;9.60;99.90;;;;;;5047799;28;20258;-59
2023/05/18 05:25:23;;;;;;;7.43;2.30;;;9.60;99.90;;;;;;5033234;28;20643;-59
2023/05/18 05:27:52;;;;;;;7.47;2.23;;;9.60;99.90;;;;;;5032649;28;20229;-58
2023/05/18 05:30:21;;;;;;;7.20;1.90;;;9.70;99.90;;;;;;5032281;28;20222;-57
2023/05/18 05:32:49;;;;;;;6.83;1.80;;;9.70;99.90;;;;;;5028004;28;20218;-59
2023/05/18 05:35:18;;;;;;;9.10;2.27;;;9.80;99.90;;;;;;5032319;28;20704;-57
2023/05/18 05:37:47;;;;;;;5.30;2.10;;;9.80;99.90;;;;;;5029826;28;20724;-58
2023/05/18 05:40:17;;;;;;;7.47;2.30;;;9.90;99.90;;;;;;5033204;28;20225;-58
2023/05/18 05:42:46;;;;;;;9.40;2.23;;;9.90;99.90;;;;;;5032518;28;20233;-58
2023/05/18 05:45:14;;;;;;;4.27;1.97;;;9.90;99.90;;;;;;5031792;28;20305;-58
2023/05/18 05:47:53;;;;;;;6.40;2.00;;;10.00;99.90;;;;;;5032727;28;20327;-58
2023/05/18 05:50:22;;;;;;;7.60;2.20;;;10.00;99.90;;;;;;5035802;28;20224;-58
2023/05/18 05:52:53;;;;;;;7.23;2.37;;;10.00;99.90;;;;;;5032124;28;20284;-59
2023/05/18 05:55:24;;;;;;;6.93;1.90;;;10.10;99.90;;;;;;5030293;28;20230;-58
2023/05/18 05:57:53;;;;;;;6.00;2.23;;;10.10;99.90;;;;;;5032591;28;20712;-57
2023/05/18 06:00:23;;;;;;;10.77;2.40;;;10.10;99.90;;;;;;5031340;28;20248;-58
2023/05/18 06:02:59;;;;;;;5.07;1.93;;;10.20;99.90;;;;;;5032085;28;20231;-58
2023/05/18 06:05:46;;;;;;;5.37;1.73;;;10.20;99.90;;;;;;5031821;28;20230;-58
2023/05/18 06:08:16;;;;;;;7.53;2.03;;;10.30;99.90;;;;;;5031951;28;20242;-58
2023/05/18 06:10:46;;;;;;;7.07;2.00;;;10.30;99.90;;;;;;5031804;28;20245;-58
2023/05/18 06:13:14;;;;;;;4.70;1.80;;;10.30;99.90;;;;;;5031821;28;20219;-59
2023/05/18 06:15:50;;;;;;;9.33;2.20;;;10.30;99.90;;;;;;5030813;28;20221;-58
2023/05/18 06:18:18;;;;;;;5.33;2.30;;;10.30;99.90;;;;;;5033371;28;20794;-59
2023/05/18 06:20:51;;;;;;;5.07;2.20;;;10.30;99.90;;;;;;5030084;28;20590;-59
2023/05/18 06:23:22;;;;;;;5.50;1.90;;;10.30;99.90;;;;;;5029521;28;20226;-57
2023/05/18 06:26:03;;;;;;;7.47;2.27;;;10.40;99.90;;;;;;5029950;28;20233;-59
2023/05/18 06:28:31;;;;;;;10.33;2.00;;;10.40;99.90;;;;;;5032819;28;20317;-58
2023/05/18 06:31:07;;;;;;;6.87;2.40;;;10.30;99.90;;;;;;5029754;28;20228;-58
2023/05/18 06:33:43;;;;;;;4.67;1.90;;;10.40;99.90;;;;;;5037387;28;20248;-58
2023/05/18 06:36:12;;;;;;;6.73;2.00;;;10.40;99.90;;;;;;5027461;28;20779;-58
2023/05/18 06:38:40;;;;;;;5.37;1.90;;;10.40;99.90;;;;;;5031557;28;20313;-58
2023/05/18 06:41:09;;;;;;;5.57;2.03;;;10.50;99.90;;;;;;5031352;28;20269;-57
2023/05/18 06:43:37;;;;;;;6.47;1.97;;;10.50;99.90;;;;;;5030602;28;20237;-58
2023/05/18 06:46:21;;;;;;;6.10;1.87;;;10.50;99.90;;;;;;5029319;28;20227;-58
2023/05/18 06:49:00;;;;;;;7.87;2.33;;;10.60;99.90;;;;;;5035684;28;20743;-58
2023/05/18 06:51:28;;;;;;;10.10;2.30;;;10.60;99.90;;;;;;5030908;28;20231;-59
2023/05/18 06:53:57;;;;;;;7.40;2.27;;;10.60;99.90;;;;;;5029770;28;20588;-58
2023/05/18 06:56:27;;;;;;;7.93;2.10;;;10.80;99.90;;;;;;5032309;28;20211;-57
2023/05/18 06:58:55;;;;;;;7.27;1.90;;;10.80;99.90;;;;;;5028150;28;20249;-59
2023/05/18 07:01:26;;;;;;;8.67;2.20;;;10.90;99.90;;;;;;5029899;28;20706;-58
2023/05/18 07:03:57;;;;;;;8.73;2.30;;;10.90;99.90;;;;;;5029098;28;20238;-58
2023/05/18 07:06:26;;;;;;;5.70;2.10;;;10.90;99.90;;;;;;5021253;28;20716;-59
2023/05/18 07:08:55;;;;;;;7.33;2.27;;;11.00;99.90;;;;;;5012620;28;20288;-58
2023/05/18 07:11:23;;;;;;;6.83;2.10;;;10.90;99.90;;;;;;5012977;28;20225;-58
2023/05/18 07:13:52;;;;;;;7.00;2.20;;;10.90;99.90;;;;;;5012942;28;20228;-58
2023/05/18 07:16:20;;;;;;;6.57;2.00;;;11.00;99.90;;;;;;5014345;28;20235;-59
2023/05/18 07:18:48;;;;;;;5.80;2.27;;;11.10;99.90;;;;;;5039510;28;20307;-59
2023/05/18 07:21:19;;;;;;;6.40;2.37;;;11.20;99.90;;;;;;5036046;28;20583;-58
2023/05/18 07:23:47;;;;;;;7.30;2.13;;;11.20;99.90;;;;;;5032306;28;20223;-59
2023/05/18 07:26:15;;;;;;;7.57;1.80;;;11.30;99.90;;;;;;5032555;28;20226;-59
2023/05/18 07:28:43;;;;;;;8.37;2.23;;;11.30;99.90;;;;;;5032216;28;20577;-59
2023/05/18 07:31:15;;;;;;;8.67;2.40;;;11.40;99.90;;;;;;5032077;28;20240;-59
2023/05/18 07:33:44;;;;;;;8.23;2.33;;;11.40;99.90;;;;;;5019734;28;20227;-57
2023/05/18 07:36:12;;;;;;;8.17;2.70;;;11.40;99.90;;;;;;5022563;28;20223;-59
2023/05/18 07:38:40;;;;;;;6.47;2.43;;;11.50;99.90;;;;;;5025905;28;20230;-58
2023/05/18 07:41:08;;;;;;;7.93;2.40;;;11.70;99.90;;;;;;5031771;28;20226;-59
2023/05/18 07:43:37;;;;;;;6.87;2.07;;;11.80;99.90;;;;;;5032123;28;20688;-58
2023/05/18 07:46:05;;;;;;;4.37;1.93;;;12.00;99.90;;;;;;5032098;28;20273;-58
2023/05/18 07:48:34;;;;;;;8.57;2.63;;;12.00;99.90;;;;;;5035006;28;20234;-58
2023/05/18 07:51:04;;;;;;;7.97;2.33;;;12.20;99.90;;;;;;5027356;28;20578;-58
2023/05/18 07:53:33;;;;;;;7.70;2.37;;;12.20;99.90;;;;;;5020396;28;20298;-53
2023/05/18 07:56:02;;;;;;;6.43;2.60;;;12.40;99.90;;;;;;5012631;28;20586;-56
2023/05/18 07:58:30;;;;;;;6.17;2.20;;;13.20;99.90;;;;;;5023785;28;20232;-55
2023/05/18 08:00:58;;;;;;;5.30;2.17;;;14.10;99.90;;;;;;5032163;28;20248;-57
2023/05/18 08:03:27;;;;;;;6.47;2.73;;;15.00;99.90;;;;;;5027014;28;20858;-57
2023/05/18 08:05:56;;;;;;;7.47;2.37;;;14.70;99.90;;;;;;5038108;28;20773;-56
2023/05/18 08:08:24;;;;;;;8.00;2.63;;;14.60;99.90;;;;;;5037352;28;20790;-54
2023/05/18 08:10:52;;;;;;;6.20;2.80;;;14.30;99.90;;;;;;5037494;28;20243;-58
2023/05/18 08:13:20;;;;;;;6.17;2.83;;;14.00;99.90;;;;;;5026303;28;20236;-58
2023/05/18 08:15:48;;;;;;;6.93;3.13;;;13.80;99.90;;;;;;5037966;28;20746;-57
2023/05/18 08:18:30;;;;;;;6.97;2.63;;;13.60;99.90;;;;;;5037629;28;20220;-58
2023/05/18 08:21:02;;;;;;;6.13;2.73;;;13.60;99.90;;;;;;5038114;28;20627;-58
2023/05/18 08:23:31;;;;;;;7.03;2.53;;;14.40;99.90;;;;;;5041977;28;20228;-58
2023/05/18 08:25:59;;;;;;;6.43;2.90;;;15.00;99.90;;;;;;5042470;28;20687;-58
2023/05/18 08:28:27;;;;;;;6.30;3.90;;;15.20;99.90;;;;;;5041082;28;20232;-55
2023/05/18 08:30:55;;;;;;;4.60;2.50;;;15.30;99.90;;;;;;5027441;28;20607;-58
2023/05/18 08:33:23;;;;;;;6.23;2.40;;;15.40;99.90;;;;;;5041087;28;20224;-58
2023/05/18 08:35:51;;;;;;;3.53;2.10;;;15.90;99.90;;;;;;5041569;28;20224;-58
2023/05/18 08:38:21;;;;;;;4.93;2.20;;;16.30;99.90;;;;;;5041418;28;20232;-56
2023/05/18 08:40:55;;;;;;;6.67;2.67;;;16.50;99.90;;;;;;5039664;28;20708;-56
2023/05/18 08:43:31;;;;;;;5.23;2.30;;;16.70;99.90;;;;;;5041002;28;20654;-56
2023/05/18 08:46:06;;;;;;;6.63;2.70;;;17.00;99.90;;;;;;5041552;28;20234;-58
2023/05/18 08:48:35;;;;;;;6.80;2.80;;;17.20;99.90;;;;;;5040181;28;20499;-54
2023/05/18 08:51:06;;;;;;;6.47;2.80;;;17.60;99.90;;;;;;5041614;28;20235;-57
2023/05/18 08:53:37;;;;;;;5.13;2.67;;;17.40;99.90;;;;;;5040951;28;20580;-57
2023/05/18 08:56:06;;;;;;;7.40;3.07;;;17.70;99.90;;;;;;5041468;28;20223;-57
2023/05/18 08:58:36;;;;;;;6.30;2.60;;;18.00;99.90;;;;;;5040065;28;20228;-55
2023/05/18 09:01:05;;;;;;;3.93;2.90;;;18.50;99.90;;;;;;5040213;28;20240;-58
2023/05/18 09:03:33;;;;;;;6.47;3.07;;;18.70;99.90;;;;;;5041525;28;20232;-57
2023/05/18 09:06:03;;;;;;;4.50;2.70;;;18.90;99.90;;;;;;5041928;28;20719;-59
2023/05/18 09:08:31;;;;;;;4.73;2.90;;;18.30;99.90;;;;;;5040682;28;20229;-58
2023/05/18 09:11:03;;;;;;;8.63;3.13;;;18.10;99.90;;;;;;5041455;28;20222;-58
2023/05/18 09:13:32;;;;;;;5.40;3.00;;;18.30;99.90;;;;;;5040870;28;20765;-58
2023/05/18 09:16:00;;;;;;;5.93;2.67;;;18.50;99.90;;;;;;5040587;28;20227;-58
2023/05/18 09:18:28;;;;;;;6.73;2.90;;;18.60;99.90;;;;;;5039139;28;20730;-56
2023/05/18 09:20:56;;;;;;;6.83;2.73;;;18.90;99.90;;;;;;5040118;28;20573;-58
2023/05/18 09:23:24;;;;;;;7.30;2.90;;;19.40;99.90;;;;;;5041122;28;20297;-55
2023/05/18 09:25:52;;;;;;;5.23;2.80;;;19.60;99.90;;;;;;5040973;28;20229;-58
2023/05/18 09:28:32;;;;;;;5.50;2.53;;;19.40;99.90;;;;;;5040114;28;20587;-58
2023/05/18 09:31:00;;;;;;;5.33;2.73;;;18.70;99.90;;;;;;5039370;28;20234;-56
2023/05/18 09:33:34;;;;;;;5.63;2.87;;;18.80;99.90;;;;;;5040180;28;20613;-56
2023/05/18 09:36:04;;;;;;;5.07;2.80;;;19.00;99.90;;;;;;5040821;28;20226;-56
2023/05/18 09:38:37;;;;;;;7.43;3.30;;;19.40;99.90;;;;;;5039305;28;20275;-56
2023/05/18 09:41:10;;;;;;;6.30;3.00;;;19.40;99.90;;;;;;5039618;28;20235;-56
2023/05/18 09:43:39;;;;;;;9.40;3.20;;;19.70;99.90;;;;;;5039878;28;20768;-58
2023/05/18 09:46:08;;;;;;;7.67;3.33;;;19.50;99.90;;;;;;5039670;28;20265;-56
2023/05/18 09:48:37;;;;;;;6.03;2.50;;;19.80;99.90;;;;;;5037838;28;20230;-57
2023/05/18 09:51:06;;;;;;;5.83;2.40;;;19.90;99.90;;;;;;5040068;28;20234;-57
2023/05/18 09:53:36;;;;;;;4.57;2.60;;;19.90;99.90;;;;;;5039075;28;20663;-54
2023/05/18 09:56:05;;;;;;;6.20;2.60;;;19.90;99.90;;;;;;5040173;28;20304;-56
2023/05/18 09:58:35;;;;;;;5.33;2.83;;;20.40;99.90;;;;;;5038457;28;20310;-56
2023/05/18 10:01:05;;;;;;;5.90;2.60;;;20.80;99.90;;;;;;5039548;28;20242;-56
2023/05/18 10:03:36;;;;;;;5.50;2.50;;;20.50;99.90;;;;;;5040206;28;20242;-57
2023/05/18 10:06:06;;;;;;;5.07;2.50;;;20.30;99.90;;;;;;5039738;28;20245;-56
2023/05/18 10:08:35;;;;;;;4.83;2.43;;;20.10;99.90;;;;;;5037282;28;20242;-54
2023/05/18 10:11:04;;;;;;;4.27;2.27;;;20.40;99.90;;;;;;5039765;28;20228;-56
2023/05/18 10:13:33;;;;;;;3.30;2.03;;;20.80;99.90;;;;;;5039606;28;20473;-54
2023/05/18 10:16:04;;;;;;;5.30;2.60;;;21.30;99.90;;;;;;5039856;28;20241;-57
2023/05/18 10:18:34;;;;;;;5.03;2.30;;;21.40;99.90;;;;;;5038028;28;20836;-53
2023/05/18 10:21:04;;;;;;;3.57;2.17;;;21.50;99.90;;;;;;5040563;28;20322;-56
2023/05/18 10:23:35;;;;;;;6.33;2.60;;;21.60;99.90;;;;;;5040671;28;21595;-56
2023/05/18 10:26:06;;;;;;;6.00;2.67;;;21.20;99.50;;;;;;5040448;28;20239;-58
2023/05/18 10:28:38;;;;;;;5.77;3.13;;;20.80;99.90;;;;;;5038010;28;20235;-53
2023/05/18 10:31:08;;;;;;;8.87;4.00;;;20.00;99.90;;;;;;5039660;28;20230;-57
2023/05/18 10:33:37;;;;;;;5.93;3.10;;;20.10;99.90;;;;;;5039870;28;20281;-55
2023/05/18 10:36:07;;;;;;;4.73;2.57;;;19.80;99.90;;;;;;5039724;28;20724;-54
2023/05/18 10:38:38;;;;;;;5.83;2.63;;;20.30;99.90;;;;;;5037682;28;20306;-57
2023/05/18 10:41:07;;;;;;;7.23;3.00;;;20.10;99.90;;;;;;5039518;28;20659;-56
2023/05/18 10:43:36;;;;;;;5.03;2.20;;;20.10;99.60;;;;;;5038830;28;20663;-58
2023/05/18 10:46:06;;;;;;;5.67;2.37;;;20.50;99.90;;;;;;5039286;28;20314;-53
2023/05/18 10:48:39;;;;;;;4.87;2.57;;;21.40;99.90;;;;;;5037512;28;20760;-57
2023/05/18 10:51:08;;;;;;;4.53;2.73;;;21.50;98.50;;;;;;5039011;28;20231;-57
2023/05/18 10:53:37;;;;;;;4.57;2.30;;;21.00;99.10;;;;;;5039287;28;20556;-55
2023/05/18 10:56:06;;;;;;;6.57;3.10;;;20.90;99.90;;;;;;5039496;28;20258;-57
2023/05/18 10:58:37;;;;;;;7.50;2.87;;;20.90;99.90;;;;;;5037640;28;20760;-55
2023/05/18 11:01:09;;;;;;;5.03;3.03;;;21.30;99.90;;;;;;5039012;28;20793;-58
2023/05/18 11:03:40;;;;;;;4.57;2.80;;;21.00;99.40;;;;;;5039567;28;20630;-56
2023/05/18 11:06:13;;;;;;;4.97;2.93;;;21.50;99.90;;;;;;5039882;28;20220;-58
2023/05/18 11:08:48;;;;;;;5.37;2.57;;;21.80;98.50;;;;;;5038564;28;20322;-57
2023/05/18 11:11:18;;;;;;;5.70;2.77;;;22.20;98.60;;;;;;5041601;28;20251;-55
2023/05/18 11:13:49;;;;;;;6.77;2.80;;;22.40;97.20;;;;;;5041743;28;20809;-56
2023/05/18 11:16:18;;;;;;;7.00;2.73;;;22.00;97.00;;;;;;5042084;28;20223;-57
2023/05/18 11:18:49;;;;;;;5.47;3.10;;;21.40;97.80;;;;;;5038519;28;20228;-53
2023/05/18 11:21:51;;;;;;;7.27;2.73;;;21.10;97.80;;;;;;5039507;28;20235;-56
2023/05/18 11:24:22;;;;;;;8.00;2.70;;;21.20;97.50;;;;;;5039377;28;20305;-58
2023/05/18 11:26:52;;;;;;;8.10;2.77;;;21.60;97.80;;;;;;5039524;28;20235;-57
2023/05/18 11:29:22;;;;;;;6.50;2.90;;;21.90;97.40;;;;;;5037902;28;20249;-56
2023/05/18 11:31:52;;;;;;;5.07;2.60;;;21.90;97.00;;;;;;5038904;28;20240;-58
2023/05/18 11:34:53;;;;;;;6.17;3.53;;;22.10;97.50;;;;;;5040223;28;20219;-57
2023/05/18 11:37:49;;;;;;;4.53;2.70;;;21.70;97.20;;;;;;5031709;28;20227;-58
2023/05/18 11:40:45;;;;;;;5.27;3.00;;;21.80;97.20;;;;;;5037761;28;20228;-56
2023/05/18 11:43:20;;;;;;;7.20;3.20;;;21.70;98.00;;;;;;5038883;28;20281;-56
2023/05/18 11:45:52;;;;;;;5.57;2.80;;;21.90;97.00;;;;;;5039186;28;20227;-58
2023/05/18 11:48:23;;;;;;;5.27;3.40;;;21.60;97.80;;;;;;5039589;28;20239;-58
2023/05/18 11:50:54;;;;;;;5.90;2.93;;;21.70;97.20;;;;;;5038144;28;20908;-58
2023/05/18 11:53:24;;;;;;;6.07;3.30;;;21.80;97.40;;;;;;5039273;28;20259;-56
2023/05/18 11:55:53;;;;;;;4.97;2.70;;;21.50;97.50;;;;;;5041664;28;20298;-57
2023/05/18 11:58:23;;;;;;;6.40;3.17;;;21.20;98.30;;;;;;5043377;28;20224;-55
2023/05/18 12:00:52;;;;;;;6.07;3.60;;;20.90;98.70;;;;;;5041308;28;20773;-57
2023/05/18 12:03:23;;;;;;;6.83;3.40;;;20.30;97.80;;;;;;5042964;28;20231;-58
2023/05/18 12:05:52;;;;;;;4.37;3.10;;;20.00;99.50;;;;;;5043303;28;20726;-54
2023/05/18 12:08:28;;;;;;;5.00;3.10;;;19.90;99.60;;;;;;5042836;28;20235;-57
2023/05/18 12:10:56;;;;;;;6.73;3.30;;;20.10;99.20;;;;;;5043317;28;20698;-58
2023/05/18 12:13:24;;;;;;;5.03;3.23;;;19.90;99.30;;;;;;5043559;28;20230;-57
2023/05/18 12:15:54;;;;;;;7.57;3.43;;;19.80;99.10;;;;;;5042831;28;20227;-56
2023/05/18 12:18:28;;;;;;;8.57;3.80;;;19.70;98.80;;;;;;5042663;28;20322;-56
2023/05/18 12:20:56;;;;;;;7.10;3.70;;;19.50;99.90;;;;;;5042870;28;20717;-56
2023/05/18 12:23:37;;;;;;;6.37;3.80;;;19.00;99.90;;;;;;5043085;28;20224;-56
2023/05/18 12:26:05;;;;;;;6.53;3.17;;;19.10;99.90;;;;;;5042551;28;20238;-55
2023/05/18 12:28:33;;;;;;;5.53;3.73;;;19.20;99.90;;;;;;5040674;28;20517;-52
2023/05/18 12:31:06;;;;;;;6.83;3.90;;;18.90;99.80;;;;;;5042587;28;20234;-54
2023/05/18 12:33:34;;;;;;;8.57;4.13;;;18.40;99.70;;;;;;5043605;28;20231;-57
2023/05/18 12:36:02;;;;;;;7.83;4.27;;;18.40;99.90;;;;;;5055089;28;20314;-57
2023/05/18 12:38:31;;;;;;;6.27;3.97;;;18.50;99.90;;;;;;5055182;28;20577;-57
2023/05/18 12:41:01;;;;;;;6.13;3.67;;;18.50;99.90;;;;;;5054651;28;20251;-57
2023/05/18 12:43:34;;;;;;;5.33;3.57;;;18.80;99.90;;;;;;5054919;28;20689;-58
2023/05/18 12:46:02;;;;;;;5.30;3.70;;;18.80;99.90;;;;;;5052319;28;20306;-58
2023/05/18 12:48:36;;;;;;;8.50;4.20;;;18.70;99.90;;;;;;5054135;28;20251;-57
2023/05/18 12:51:05;;;;;;;6.93;3.47;;;18.70;99.90;;;;;;5052728;28;20223;-56
2023/05/18 12:53:41;;;;;;;5.93;3.60;;;18.30;99.90;;;;;;5054782;28;20227;-56
2023/05/18 12:56:11;;;;;;;8.33;4.10;;;18.50;99.90;;;;;;5055040;28;20223;-56
2023/05/18 12:58:40;;;;;;;5.93;3.67;;;18.00;99.90;;;;;;5054776;28;20219;-56
2023/05/18 13:01:09;;;;;;;7.33;3.63;;;18.00;99.90;;;;;;5054239;28;20242;-56
2023/05/18 13:03:40;;;;;;;4.97;3.37;;;17.50;99.90;;;;;;5036668;28;20313;-56
2023/05/18 13:06:09;;;;;;;6.33;3.17;;;17.20;99.90;;;;;;5047129;28;20711;-57
2023/05/18 13:08:37;;;;;;;5.10;3.17;;;17.60;99.90;;;;;;5054079;28;20313;-57